sensor_id;sensor_type;location;lat;lon;timestamp;pressure;altitude;pressure_sealevel;temperature;humidity
56831;BME280;42713;42.676;23.352;2023-01-20T00:00:31;93841.56;;;8.31;92.07
56831;BME280;42713;42.676;23.352;2023-01-20T00:02:56;93855.75;;;8.40;92.10
56831;BME280;42713;42.676;23.352;2023-01-20T00:05:22;93883.69;;;8.45;92.33
56831;BME280;42713;42.676;23.352;2023-01-20T00:07:47;93887.69;;;8.52;92.43
56831;BME280;42713;42.676;23.352;2023-01-20T00:10:13;93895.31;;;8.59;91.38
56831;BME280;42713;42.676;23.352;2023-01-20T00:12:38;93882.25;;;8.59;90.66
56831;BME280;42713;42.676;23.352;2023-01-20T00:15:05;93875.00;;;8.66;91.27
56831;BME280;42713;42.676;23.352;2023-01-20T00:17:31;93905.59;;;8.71;90.74
56831;BME280;42713;42.676;23.352;2023-01-20T00:19:56;93893.31;;;8.71;91.11
56831;BME280;42713;42.676;23.352;2023-01-20T00:22:22;93828.88;;;8.77;91.13
56831;BME280;42713;42.676;23.352;2023-01-20T00:24:47;93698.59;;;8.76;90.09
56831;BME280;42713;42.676;23.352;2023-01-20T00:27:14;93674.53;;;8.68;88.34
56831;BME280;42713;42.676;23.352;2023-01-20T00:29:39;93692.50;;;8.60;87.98
56831;BME280;42713;42.676;23.352;2023-01-20T00:32:09;93715.72;;;8.56;87.70
56831;BME280;42713;42.676;23.352;2023-01-20T00:34:34;93710.47;;;8.51;87.46
56831;BME280;42713;42.676;23.352;2023-01-20T00:37:00;93694.78;;;8.46;87.66
56831;BME280;42713;42.676;23.352;2023-01-20T00:39:25;93687.94;;;8.34;87.01
56831;BME280;42713;42.676;23.352;2023-01-20T00:41:50;93681.34;;;8.26;88.00
56831;BME280;42713;42.676;23.352;2023-01-20T00:44:16;93674.28;;;8.22;88.28
56831;BME280;42713;42.676;23.352;2023-01-20T00:46:41;93670.91;;;8.26;86.36
56831;BME280;42713;42.676;23.352;2023-01-20T00:49:08;93679.50;;;8.22;86.50
56831;BME280;42713;42.676;23.352;2023-01-20T00:51:34;93682.13;;;8.22;87.42
56831;BME280;42713;42.676;23.352;2023-01-20T00:53:59;93692.34;;;8.29;87.72
56831;BME280;42713;42.676;23.352;2023-01-20T00:56:25;93681.41;;;8.32;88.14
56831;BME280;42713;42.676;23.352;2023-01-20T00:58:50;93681.13;;;8.33;88.71
56831;BME280;42713;42.676;23.352;2023-01-20T01:01:15;93678.00;;;8.31;88.66
56831;BME280;42713;42.676;23.352;2023-01-20T01:03:42;93682.16;;;8.32;86.97
56831;BME280;42713;42.676;23.352;2023-01-20T01:06:11;93675.91;;;8.33;86.69
56831;BME280;42713;42.676;23.352;2023-01-20T01:08:37;93673.78;;;8.25;86.31
56831;BME280;42713;42.676;23.352;2023-01-20T01:11:04;93667.50;;;8.21;86.17
56831;BME280;42713;42.676;23.352;2023-01-20T01:13:29;93669.88;;;8.22;86.71
56831;BME280;42713;42.676;23.352;2023-01-20T01:15:55;93665.44;;;8.23;86.26
56831;BME280;42713;42.676;23.352;2023-01-20T01:18:21;93649.00;;;8.22;85.42
56831;BME280;42713;42.676;23.352;2023-01-20T01:20:46;93647.66;;;8.15;84.58
56831;BME280;42713;42.676;23.352;2023-01-20T01:23:12;93656.25;;;8.10;84.84
56831;BME280;42713;42.676;23.352;2023-01-20T01:25:37;93654.16;;;8.12;83.82
56831;BME280;42713;42.676;23.352;2023-01-20T01:28:04;93657.28;;;8.09;83.61
56831;BME280;42713;42.676;23.352;2023-01-20T01:30:30;93651.56;;;8.12;84.19
56831;BME280;42713;42.676;23.352;2023-01-20T01:32:55;93627.56;;;8.15;83.26
56831;BME280;42713;42.676;23.352;2023-01-20T01:35:20;93628.59;;;8.09;84.11
56831;BME280;42713;42.676;23.352;2023-01-20T01:37:46;93643.44;;;8.08;83.89
56831;BME280;42713;42.676;23.352;2023-01-20T01:40:11;93637.97;;;8.10;84.13
56831;BME280;42713;42.676;23.352;2023-01-20T01:42:37;93639.50;;;8.06;84.71
56831;BME280;42713;42.676;23.352;2023-01-20T01:47:54;93656.84;;;8.22;85.54
56831;BME280;42713;42.676;23.352;2023-01-20T01:50:31;93666.50;;;8.27;84.46
56831;BME280;42713;42.676;23.352;2023-01-20T01:52:59;93680.09;;;8.34;84.76
56831;BME280;42713;42.676;23.352;2023-01-20T01:55:28;93679.88;;;8.41;85.59
56831;BME280;42713;42.676;23.352;2023-01-20T01:57:55;93682.72;;;8.39;83.38
56831;BME280;42713;42.676;23.352;2023-01-20T02:00:22;93669.44;;;8.41;83.75
56831;BME280;42713;42.676;23.352;2023-01-20T02:02:48;93662.38;;;8.41;82.81
56831;BME280;42713;42.676;23.352;2023-01-20T02:05:14;93660.81;;;8.40;81.74
56831;BME280;42713;42.676;23.352;2023-01-20T02:07:43;93669.94;;;8.43;81.53
56831;BME280;42713;42.676;23.352;2023-01-20T02:10:10;93662.66;;;8.40;82.05
56831;BME280;42713;42.676;23.352;2023-01-20T02:12:36;93653.25;;;8.39;81.98
56831;BME280;42713;42.676;23.352;2023-01-20T02:15:02;93645.16;;;8.35;82.08
56831;BME280;42713;42.676;23.352;2023-01-20T02:17:32;93633.91;;;8.35;81.64
56831;BME280;42713;42.676;23.352;2023-01-20T02:30:33;93625.00;;;8.20;83.76
56831;BME280;42713;42.676;23.352;2023-01-20T02:35:45;93625.50;;;8.17;83.34
56831;BME280;42713;42.676;23.352;2023-01-20T02:41:15;93613.22;;;8.13;83.31
56831;BME280;42713;42.676;23.352;2023-01-20T02:46:34;93589.19;;;8.10;82.99
56831;BME280;42713;42.676;23.352;2023-01-20T02:49:12;93597.59;;;8.18;83.60
56831;BME280;42713;42.676;23.352;2023-01-20T02:51:55;93583.25;;;8.20;84.23
56831;BME280;42713;42.676;23.352;2023-01-20T02:54:24;93591.09;;;8.20;81.73
56831;BME280;42713;42.676;23.352;2023-01-20T02:56:52;93597.59;;;8.23;83.01
56831;BME280;42713;42.676;23.352;2023-01-20T02:59:24;93586.41;;;8.22;82.61
56831;BME280;42713;42.676;23.352;2023-01-20T03:01:58;93585.63;;;8.27;83.12
56831;BME280;42713;42.676;23.352;2023-01-20T03:04:30;93581.19;;;8.28;82.76
56831;BME280;42713;42.676;23.352;2023-01-20T03:06:58;93584.88;;;8.32;82.39
56831;BME280;42713;42.676;23.352;2023-01-20T03:09:29;93590.84;;;8.27;82.29
56831;BME280;42713;42.676;23.352;2023-01-20T03:11:59;93596.63;;;8.34;82.65
56831;BME280;42713;42.676;23.352;2023-01-20T03:14:26;93592.97;;;8.35;82.46
56831;BME280;42713;42.676;23.352;2023-01-20T03:16:52;93589.31;;;8.36;82.93
56831;BME280;42713;42.676;23.352;2023-01-20T03:19:18;93586.19;;;8.39;81.86
56831;BME280;42713;42.676;23.352;2023-01-20T03:21:44;93594.81;;;8.40;81.88
56831;BME280;42713;42.676;23.352;2023-01-20T03:24:10;93597.66;;;8.38;81.63
56831;BME280;42713;42.676;23.352;2023-01-20T03:26:37;93601.84;;;8.39;81.21
56831;BME280;42713;42.676;23.352;2023-01-20T03:29:07;93599.22;;;8.39;81.92
56831;BME280;42713;42.676;23.352;2023-01-20T03:31:54;93592.19;;;8.40;82.81
56831;BME280;42713;42.676;23.352;2023-01-20T03:34:22;93598.19;;;8.40;82.87
56831;BME280;42713;42.676;23.352;2023-01-20T03:36:49;93591.41;;;8.39;82.88
56831;BME280;42713;42.676;23.352;2023-01-20T03:39:16;93607.59;;;8.41;83.11
56831;BME280;42713;42.676;23.352;2023-01-20T03:42:05;93601.88;;;8.45;83.51
56831;BME280;42713;42.676;23.352;2023-01-20T03:58:33;93561.44;;;8.42;85.93
56831;BME280;42713;42.676;23.352;2023-01-20T04:01:04;93568.19;;;8.43;85.69
56831;BME280;42713;42.676;23.352;2023-01-20T04:03:32;93565.56;;;8.43;85.76
56831;BME280;42713;42.676;23.352;2023-01-20T04:06:02;93548.88;;;8.44;85.27
56831;BME280;42713;42.676;23.352;2023-01-20T04:08:32;93551.22;;;8.40;85.72
56831;BME280;42713;42.676;23.352;2023-01-20T04:11:00;93553.59;;;8.42;85.61
56831;BME280;42713;42.676;23.352;2023-01-20T04:13:28;93548.38;;;8.42;85.44
56831;BME280;42713;42.676;23.352;2023-01-20T04:15:55;93539.75;;;8.41;86.14
56831;BME280;42713;42.676;23.352;2023-01-20T04:18:22;93537.41;;;8.40;86.27
56831;BME280;42713;42.676;23.352;2023-01-20T04:20:51;93528.28;;;8.43;86.44
56831;BME280;42713;42.676;23.352;2023-01-20T04:23:38;93528.28;;;8.43;86.65
56831;BME280;42713;42.676;23.352;2023-01-20T04:26:04;93516.00;;;8.43;86.31
56831;BME280;42713;42.676;23.352;2023-01-20T04:28:30;93519.38;;;8.38;86.45
56831;BME280;42713;42.676;23.352;2023-01-20T04:30:56;93506.88;;;8.40;86.83
56831;BME280;42713;42.676;23.352;2023-01-20T04:33:22;93512.34;;;8.39;86.92
56831;BME280;42713;42.676;23.352;2023-01-20T04:35:47;93523.31;;;8.41;86.94
56831;BME280;42713;42.676;23.352;2023-01-20T04:38:12;93521.22;;;8.38;86.55
56831;BME280;42713;42.676;23.352;2023-01-20T04:40:38;93516.28;;;8.36;86.55
56831;BME280;42713;42.676;23.352;2023-01-20T04:43:03;93504.78;;;8.37;86.48
56831;BME280;42713;42.676;23.352;2023-01-20T04:45:29;93515.75;;;8.34;86.49
56831;BME280;42713;42.676;23.352;2023-01-20T04:47:54;93524.09;;;8.36;86.97
56831;BME280;42713;42.676;23.352;2023-01-20T04:50:20;93521.50;;;8.36;86.97
56831;BME280;42713;42.676;23.352;2023-01-20T04:52:45;93522.00;;;8.38;86.69
56831;BME280;42713;42.676;23.352;2023-01-20T04:55:11;93522.00;;;8.38;87.20
56831;BME280;42713;42.676;23.352;2023-01-20T04:57:37;93520.44;;;8.37;86.85
56831;BME280;42713;42.676;23.352;2023-01-20T05:00:04;93527.75;;;8.35;87.69
56831;BME280;42713;42.676;23.352;2023-01-20T05:02:30;93533.50;;;8.37;87.41
56831;BME280;42713;42.676;23.352;2023-01-20T05:04:55;93539.47;;;8.38;86.53
56831;BME280;42713;42.676;23.352;2023-01-20T05:07:21;93544.97;;;8.36;86.23
56831;BME280;42713;42.676;23.352;2023-01-20T05:09:46;93568.19;;;8.38;86.41
56831;BME280;42713;42.676;23.352;2023-01-20T05:12:12;93555.38;;;8.31;85.62
56831;BME280;42713;42.676;23.352;2023-01-20T05:14:37;93560.84;;;8.30;85.58
56831;BME280;42713;42.676;23.352;2023-01-20T05:17:03;93561.59;;;8.20;86.05
56831;BME280;42713;42.676;23.352;2023-01-20T05:19:28;93551.66;;;8.06;87.13
56831;BME280;42713;42.676;23.352;2023-01-20T05:21:54;93558.41;;;8.02;87.96
56831;BME280;42713;42.676;23.352;2023-01-20T05:24:20;93556.06;;;8.01;89.09
56831;BME280;42713;42.676;23.352;2023-01-20T05:26:45;93549.22;;;7.94;89.88
56831;BME280;42713;42.676;23.352;2023-01-20T05:29:10;93556.25;;;7.89;89.88
56831;BME280;42713;42.676;23.352;2023-01-20T05:31:36;93562.75;;;7.86;90.21
56831;BME280;42713;42.676;23.352;2023-01-20T05:34:02;93572.66;;;7.84;91.20
56831;BME280;42713;42.676;23.352;2023-01-20T05:36:29;93571.31;;;7.76;90.55
56831;BME280;42713;42.676;23.352;2023-01-20T05:38:54;93581.50;;;7.78;91.64
56831;BME280;42713;42.676;23.352;2023-01-20T05:41:20;93565.31;;;7.76;92.70
56831;BME280;42713;42.676;23.352;2023-01-20T05:43:45;93582.78;;;7.81;93.43
56831;BME280;42713;42.676;23.352;2023-01-20T05:46:11;93587.25;;;7.85;93.41
56831;BME280;42713;42.676;23.352;2023-01-20T05:48:36;93586.75;;;7.88;93.33
56831;BME280;42713;42.676;23.352;2023-01-20T05:51:02;93581.03;;;7.91;93.55
56831;BME280;42713;42.676;23.352;2023-01-20T05:53:28;93581.31;;;7.95;94.06
56831;BME280;42713;42.676;23.352;2023-01-20T05:56:04;93573.50;;;8.00;94.13
56831;BME280;42713;42.676;23.352;2023-01-20T05:58:29;93558.41;;;8.02;93.47
56831;BME280;42713;42.676;23.352;2023-01-20T06:01:10;93555.53;;;8.04;93.22
56831;BME280;42713;42.676;23.352;2023-01-20T06:03:37;93564.16;;;8.04;93.74
56831;BME280;42713;42.676;23.352;2023-01-20T06:06:05;93561.53;;;8.04;93.30
56831;BME280;42713;42.676;23.352;2023-01-20T06:08:31;93564.16;;;8.09;94.25
56831;BME280;42713;42.676;23.352;2023-01-20T06:10:57;93572.50;;;8.06;93.37
56831;BME280;42713;42.676;23.352;2023-01-20T06:13:24;93574.84;;;8.08;93.24
56831;BME280;42713;42.676;23.352;2023-01-20T06:15:50;93571.97;;;8.09;93.97
56831;BME280;42713;42.676;23.352;2023-01-20T06:18:16;93586.09;;;8.14;93.91
56831;BME280;42713;42.676;23.352;2023-01-20T06:20:42;93582.69;;;8.13;93.33
56831;BME280;42713;42.676;23.352;2023-01-20T06:23:07;93579.03;;;8.14;93.42
56831;BME280;42713;42.676;23.352;2023-01-20T06:25:33;93582.69;;;8.13;93.95
56831;BME280;42713;42.676;23.352;2023-01-20T06:27:59;93593.94;;;8.19;94.00
56831;BME280;42713;42.676;23.352;2023-01-20T06:30:24;93596.53;;;8.19;93.85
56831;BME280;42713;42.676;23.352;2023-01-20T06:32:50;93602.28;;;8.21;94.13
56831;BME280;42713;42.676;23.352;2023-01-20T06:35:15;93568.16;;;8.22;93.42
56831;BME280;42713;42.676;23.352;2023-01-20T06:37:41;93547.50;;;8.16;93.34
56831;BME280;42713;42.676;23.352;2023-01-20T06:40:07;93544.91;;;8.16;92.90
56831;BME280;42713;42.676;23.352;2023-01-20T06:42:33;93557.41;;;8.14;93.01
56831;BME280;42713;42.676;23.352;2023-01-20T06:44:58;93523.19;;;8.05;92.88
56831;BME280;42713;42.676;23.352;2023-01-20T06:47:24;93539.13;;;8.08;93.37
56831;BME280;42713;42.676;23.352;2023-01-20T06:49:49;93538.84;;;8.05;93.91
56831;BME280;42713;42.676;23.352;2023-01-20T06:52:15;93554.75;;;8.08;93.20
56831;BME280;42713;42.676;23.352;2023-01-20T06:54:40;93552.69;;;8.10;93.54
56831;BME280;42713;42.676;23.352;2023-01-20T06:57:06;93538.63;;;8.12;93.40
56831;BME280;42713;42.676;23.352;2023-01-20T06:59:31;93552.97;;;8.14;93.06
56831;BME280;42713;42.676;23.352;2023-01-20T07:01:57;93550.34;;;8.14;93.71
56831;BME280;42713;42.676;23.352;2023-01-20T07:04:22;93559.50;;;8.17;93.79
56831;BME280;42713;42.676;23.352;2023-01-20T07:06:47;93556.13;;;8.21;94.31
56831;BME280;42713;42.676;23.352;2023-01-20T07:09:13;93541.00;;;8.23;94.07
56831;BME280;42713;42.676;23.352;2023-01-20T07:11:39;93556.41;;;8.25;93.51
56831;BME280;42713;42.676;23.352;2023-01-20T07:14:05;93547.81;;;8.30;93.30
56831;BME280;42713;42.676;23.352;2023-01-20T07:16:32;93546.50;;;8.32;92.81
56831;BME280;42713;42.676;23.352;2023-01-20T07:18:57;93537.66;;;8.33;92.39
56831;BME280;42713;42.676;23.352;2023-01-20T07:21:23;93533.72;;;8.31;92.21
56831;BME280;42713;42.676;23.352;2023-01-20T07:23:49;93539.47;;;8.33;92.44
56831;BME280;42713;42.676;23.352;2023-01-20T07:26:17;93540.00;;;8.35;92.71
56831;BME280;42713;42.676;23.352;2023-01-20T07:28:43;93557.22;;;8.36;92.51
56831;BME280;42713;42.676;23.352;2023-01-20T07:31:14;93560.84;;;8.35;92.32
56831;BME280;42713;42.676;23.352;2023-01-20T07:33:56;93559.06;;;8.35;92.55
56831;BME280;42713;42.676;23.352;2023-01-20T07:36:24;93536.84;;;8.33;92.40
56831;BME280;42713;42.676;23.352;2023-01-20T07:38:52;93541.31;;;8.37;92.36
56831;BME280;42713;42.676;23.352;2023-01-20T07:41:19;93542.38;;;8.36;92.11
56831;BME280;42713;42.676;23.352;2023-01-20T07:43:47;93544.97;;;8.36;91.99
56831;BME280;42713;42.676;23.352;2023-01-20T07:46:13;93538.16;;;8.30;91.17
56831;BME280;42713;42.676;23.352;2023-01-20T07:48:39;93550.69;;;8.33;91.64
56831;BME280;42713;42.676;23.352;2023-01-20T07:51:07;93546.50;;;8.32;92.00
56831;BME280;42713;42.676;23.352;2023-01-20T07:53:37;93534.50;;;8.31;92.23
56831;BME280;42713;42.676;23.352;2023-01-20T07:56:09;93542.88;;;8.33;92.46
56831;BME280;42713;42.676;23.352;2023-01-20T07:58:36;93545.22;;;8.35;92.57
56831;BME280;42713;42.676;23.352;2023-01-20T08:01:16;93538.19;;;8.35;92.54
56831;BME280;42713;42.676;23.352;2023-01-20T08:03:42;93533.19;;;8.34;91.83
56831;BME280;42713;42.676;23.352;2023-01-20T08:06:10;93547.28;;;8.33;91.31
56831;BME280;42713;42.676;23.352;2023-01-20T08:08:36;93526.41;;;8.28;91.06
56831;BME280;42713;42.676;23.352;2023-01-20T08:11:03;93519.88;;;8.25;90.23
56831;BME280;42713;42.676;23.352;2023-01-20T08:13:30;93506.81;;;8.20;90.23
56831;BME280;42713;42.676;23.352;2023-01-20T08:16:01;93488.56;;;8.20;90.22
56831;BME280;42713;42.676;23.352;2023-01-20T08:18:27;93463.50;;;8.19;90.72
56831;BME280;42713;42.676;23.352;2023-01-20T08:20:52;93459.09;;;8.19;90.53
56831;BME280;42713;42.676;23.352;2023-01-20T08:23:18;93465.63;;;8.22;90.80
56831;BME280;42713;42.676;23.352;2023-01-20T08:25:43;93475.78;;;8.18;90.95
56831;BME280;42713;42.676;23.352;2023-01-20T08:28:09;93490.66;;;8.18;90.97
56831;BME280;42713;42.676;23.352;2023-01-20T08:30:34;93493.00;;;8.19;90.74
56831;BME280;42713;42.676;23.352;2023-01-20T08:33:00;93489.63;;;8.24;90.91
56831;BME280;42713;42.676;23.352;2023-01-20T08:35:25;93491.47;;;8.29;90.87
56831;BME280;42713;42.676;23.352;2023-01-20T08:37:51;93487.53;;;8.31;90.15
56831;BME280;42713;42.676;23.352;2023-01-20T08:40:16;93483.13;;;8.37;91.06
56831;BME280;42713;42.676;23.352;2023-01-20T08:42:42;93469.31;;;8.41;90.99
56831;BME280;42713;42.676;23.352;2023-01-20T08:45:08;93452.88;;;8.46;90.55
56831;BME280;42713;42.676;23.352;2023-01-20T08:47:38;93453.44;;;8.48;91.25
56831;BME280;42713;42.676;23.352;2023-01-20T08:50:11;93451.84;;;8.52;90.26
56831;BME280;42713;42.676;23.352;2023-01-20T08:52:36;93450.81;;;8.59;91.34
56831;BME280;42713;42.676;23.352;2023-01-20T08:55:02;93458.38;;;8.60;90.06
56831;BME280;42713;42.676;23.352;2023-01-20T08:57:28;93447.97;;;8.65;89.94
56831;BME280;42713;42.676;23.352;2023-01-20T08:59:53;93439.84;;;8.72;89.26
56831;BME280;42713;42.676;23.352;2023-01-20T09:02:20;93441.94;;;8.75;89.02
56831;BME280;42713;42.676;23.352;2023-01-20T09:04:47;93441.97;;;8.80;88.75
56831;BME280;42713;42.676;23.352;2023-01-20T09:07:15;93446.88;;;8.87;87.37
56831;BME280;42713;42.676;23.352;2023-01-20T09:09:40;93441.16;;;8.85;86.88
56831;BME280;42713;42.676;23.352;2023-01-20T09:12:06;93430.47;;;8.81;86.14
56831;BME280;42713;42.676;23.352;2023-01-20T09:14:31;93430.19;;;8.83;85.63
56831;BME280;42713;42.676;23.352;2023-01-20T09:16:57;93459.69;;;8.83;85.85
56831;BME280;42713;42.676;23.352;2023-01-20T09:19:22;93452.66;;;8.84;85.83
56831;BME280;42713;42.676;23.352;2023-01-20T09:21:48;93444.03;;;8.88;84.20
56831;BME280;42713;42.676;23.352;2023-01-20T09:24:14;93439.06;;;8.87;84.47
56831;BME280;42713;42.676;23.352;2023-01-20T09:26:39;93442.97;;;8.84;83.24
56831;BME280;42713;42.676;23.352;2023-01-20T09:29:08;93437.75;;;8.84;83.28
56831;BME280;42713;42.676;23.352;2023-01-20T09:31:36;93439.84;;;8.87;83.11
56831;BME280;42713;42.676;23.352;2023-01-20T09:34:02;93437.50;;;8.96;83.45
56831;BME280;42713;42.676;23.352;2023-01-20T09:36:28;93432.78;;;8.98;83.64
56831;BME280;42713;42.676;23.352;2023-01-20T09:38:53;93426.53;;;9.05;83.37
56831;BME280;42713;42.676;23.352;2023-01-20T09:41:40;93427.53;;;9.09;85.46
56831;BME280;42713;42.676;23.352;2023-01-20T09:52:38;93408.97;;;9.26;85.10
56831;BME280;42713;42.676;23.352;2023-01-20T09:57:59;93402.91;;;9.41;83.66
56831;BME280;42713;42.676;23.352;2023-01-20T10:00:30;93384.84;;;9.44;83.12
56831;BME280;42713;42.676;23.352;2023-01-20T10:03:10;93376.97;;;9.55;83.69
56831;BME280;42713;42.676;23.352;2023-01-20T10:05:38;93385.28;;;9.67;82.25
56831;BME280;42713;42.676;23.352;2023-01-20T10:08:25;93396.47;;;9.78;81.87
56831;BME280;42713;42.676;23.352;2023-01-20T10:13:31;93373.69;;;9.89;78.83
56831;BME280;42713;42.676;23.352;2023-01-20T10:16:02;93367.13;;;9.91;78.71
56831;BME280;42713;42.676;23.352;2023-01-20T10:18:42;93338.59;;;9.95;79.43
56831;BME280;42713;42.676;23.352;2023-01-20T10:21:57;93336.06;;;10.14;78.33
56831;BME280;42713;42.676;23.352;2023-01-20T10:24:28;93340.97;;;10.26;78.57
56831;BME280;42713;42.676;23.352;2023-01-20T10:27:02;93347.97;;;10.36;78.48
56831;BME280;42713;42.676;23.352;2023-01-20T10:29:43;93363.44;;;10.37;76.17
56831;BME280;42713;42.676;23.352;2023-01-20T10:32:27;93357.16;;;10.38;76.13
56831;BME280;42713;42.676;23.352;2023-01-20T10:35:01;93346.38;;;10.35;75.69
56831;BME280;42713;42.676;23.352;2023-01-20T10:37:30;93355.81;;;10.41;76.26
56831;BME280;42713;42.676;23.352;2023-01-20T10:40:04;93356.81;;;10.45;76.26
56831;BME280;42713;42.676;23.352;2023-01-20T10:42:33;93346.41;;;10.40;76.36
56831;BME280;42713;42.676;23.352;2023-01-20T10:44:59;93356.88;;;10.40;75.20
56831;BME280;42713;42.676;23.352;2023-01-20T10:47:35;93349.09;;;10.24;74.77
56831;BME280;42713;42.676;23.352;2023-01-20T10:58:23;93360.44;;;10.09;77.71
56831;BME280;42713;42.676;23.352;2023-01-20T11:00:50;93367.53;;;10.09;77.75
56831;BME280;42713;42.676;23.352;2023-01-20T11:03:21;93344.50;;;10.06;77.89
56831;BME280;42713;42.676;23.352;2023-01-20T11:05:47;93344.09;;;9.93;78.63
56831;BME280;42713;42.676;23.352;2023-01-20T11:08:19;93344.97;;;9.73;78.31
56831;BME280;42713;42.676;23.352;2023-01-20T11:10:48;93344.22;;;9.68;79.12
56831;BME280;42713;42.676;23.352;2023-01-20T11:13:15;93342.09;;;9.75;80.53
56831;BME280;42713;42.676;23.352;2023-01-20T11:15:46;93368.50;;;9.78;80.31
56831;BME280;42713;42.676;23.352;2023-01-20T11:21:21;93366.69;;;9.74;79.92
56831;BME280;42713;42.676;23.352;2023-01-20T11:23:51;93355.78;;;9.56;81.88
56831;BME280;42713;42.676;23.352;2023-01-20T11:26:21;93357.38;;;9.52;81.70
56831;BME280;42713;42.676;23.352;2023-01-20T11:31:44;93366.16;;;9.11;83.87
56831;BME280;42713;42.676;23.352;2023-01-20T11:34:31;93361.53;;;8.77;85.87
56831;BME280;42713;42.676;23.352;2023-01-20T11:39:42;93357.38;;;8.35;89.91
56831;BME280;42713;42.676;23.352;2023-01-20T11:42:19;93360.25;;;8.13;92.53
56831;BME280;42713;42.676;23.352;2023-01-20T11:44:52;93359.69;;;8.00;92.84
56831;BME280;42713;42.676;23.352;2023-01-20T11:47:24;93366.47;;;7.91;94.09
56831;BME280;42713;42.676;23.352;2023-01-20T11:50:18;93367.00;;;7.93;94.60
56831;BME280;42713;42.676;23.352;2023-01-20T11:52:45;93356.03;;;7.91;94.15
56831;BME280;42713;42.676;23.352;2023-01-20T11:57:53;93372.97;;;7.73;86.10
56831;BME280;42713;42.676;23.352;2023-01-20T12:08:04;93386.69;;;6.89;83.59
56831;BME280;42713;42.676;23.352;2023-01-20T12:10:36;93396.31;;;6.89;84.79
56831;BME280;42713;42.676;23.352;2023-01-20T12:15:41;93391.06;;;6.83;84.72
56831;BME280;42713;42.676;23.352;2023-01-20T12:18:16;93399.44;;;6.91;85.74
56831;BME280;42713;42.676;23.352;2023-01-20T12:21:18;93402.03;;;6.91;86.67
56831;BME280;42713;42.676;23.352;2023-01-20T12:24:15;93403.06;;;6.84;86.57
56831;BME280;42713;42.676;23.352;2023-01-20T12:26:43;93426.00;;;6.93;88.66
56831;BME280;42713;42.676;23.352;2023-01-20T12:29:46;93441.03;;;6.80;89.01
56831;BME280;42713;42.676;23.352;2023-01-20T12:32:13;93447.00;;;6.76;89.81
56831;BME280;42713;42.676;23.352;2023-01-20T12:34:39;93437.63;;;6.80;91.26
56831;BME280;42713;42.676;23.352;2023-01-20T12:37:36;93459.56;;;6.89;92.22
56831;BME280;42713;42.676;23.352;2023-01-20T12:40:29;93487.53;;;6.72;86.95
56831;BME280;42713;42.676;23.352;2023-01-20T12:51:18;93513.31;;;4.78;88.37
56831;BME280;42713;42.676;23.352;2023-01-20T13:07:37;93499.34;;;3.76;91.81
56831;BME280;42713;42.676;23.352;2023-01-20T13:13:02;93511.09;;;3.54;92.99
56831;BME280;42713;42.676;23.352;2023-01-20T13:15:40;93511.00;;;3.49;93.49
56831;BME280;42713;42.676;23.352;2023-01-20T13:20:54;93519.44;;;3.45;94.68
56831;BME280;42713;42.676;23.352;2023-01-20T13:23:26;93540.16;;;3.45;95.15
56831;BME280;42713;42.676;23.352;2023-01-20T13:25:53;93532.81;;;3.41;95.02
56831;BME280;42713;42.676;23.352;2023-01-20T13:28:25;93527.00;;;3.34;94.09
56831;BME280;42713;42.676;23.352;2023-01-20T13:30:53;93534.53;;;3.48;94.80
56831;BME280;42713;42.676;23.352;2023-01-20T13:33:38;93542.84;;;3.50;94.87
56831;BME280;42713;42.676;23.352;2023-01-20T13:36:15;93540.56;;;3.53;94.65
56831;BME280;42713;42.676;23.352;2023-01-20T13:38:41;93528.22;;;3.43;94.23
56831;BME280;42713;42.676;23.352;2023-01-20T13:41:08;93535.31;;;3.48;94.07
56831;BME280;42713;42.676;23.352;2023-01-20T13:48:34;93551.06;;;3.47;94.29
56831;BME280;42713;42.676;23.352;2023-01-20T13:53:50;93557.81;;;3.24;94.85
56831;BME280;42713;42.676;23.352;2023-01-20T13:56:27;93577.28;;;3.26;94.50
56831;BME280;42713;42.676;23.352;2023-01-20T13:58:56;93585.03;;;3.15;93.29
56831;BME280;42713;42.676;23.352;2023-01-20T14:01:25;93589.97;;;3.16;95.07
56831;BME280;42713;42.676;23.352;2023-01-20T14:04:13;93603.06;;;3.21;96.06
56831;BME280;42713;42.676;23.352;2023-01-20T14:06:51;93607.31;;;3.27;95.91
56831;BME280;42713;42.676;23.352;2023-01-20T14:09:23;93611.97;;;3.37;95.29
56831;BME280;42713;42.676;23.352;2023-01-20T14:11:50;93618.91;;;3.49;94.56
56831;BME280;42713;42.676;23.352;2023-01-20T14:14:22;93615.44;;;3.67;94.53
56831;BME280;42713;42.676;23.352;2023-01-20T14:16:50;93620.28;;;3.63;93.25
56831;BME280;42713;42.676;23.352;2023-01-20T14:19:34;93618.25;;;3.77;93.76
56831;BME280;42713;42.676;23.352;2023-01-20T14:22:16;93619.13;;;3.83;93.23
56831;BME280;42713;42.676;23.352;2023-01-20T14:24:44;93624.41;;;4.00;92.42
56831;BME280;42713;42.676;23.352;2023-01-20T14:29:48;93615.72;;;4.06;90.25
56831;BME280;42713;42.676;23.352;2023-01-20T14:32:15;93625.38;;;4.23;90.58
56831;BME280;42713;42.676;23.352;2023-01-20T14:34:42;93631.56;;;4.21;90.04
56831;BME280;42713;42.676;23.352;2023-01-20T14:39:49;93622.94;;;4.04;88.44
56831;BME280;42713;42.676;23.352;2023-01-20T14:42:20;93610.00;;;3.92;89.05
56831;BME280;42713;42.676;23.352;2023-01-20T14:44:48;93612.47;;;3.99;90.12
56831;BME280;42713;42.676;23.352;2023-01-20T14:47:14;93623.50;;;3.82;88.46
56831;BME280;42713;42.676;23.352;2023-01-20T14:49:40;93616.44;;;3.78;88.83
56831;BME280;42713;42.676;23.352;2023-01-20T14:52:21;93626.91;;;3.83;88.84
56831;BME280;42713;42.676;23.352;2023-01-20T14:54:48;93633.75;;;3.89;87.32
56831;BME280;42713;42.676;23.352;2023-01-20T14:57:40;93647.50;;;3.78;87.27
56831;BME280;42713;42.676;23.352;2023-01-20T15:00:20;93650.66;;;3.44;86.97
56831;BME280;42713;42.676;23.352;2023-01-20T15:05:25;93672.25;;;3.26;88.24
56831;BME280;42713;42.676;23.352;2023-01-20T15:10:30;93685.00;;;2.97;88.46
56831;BME280;42713;42.676;23.352;2023-01-20T15:12:55;93695.69;;;3.01;88.72
56831;BME280;42713;42.676;23.352;2023-01-20T15:15:27;93689.91;;;2.87;88.50